Terminal Aerodrome Forecast
Issued by NWS Green Bay, WI

Home | Current Version | Previous Version | Graphics & Text | Print | Product List | Glossary On
Versions: 1 2 3 4 5 6 7 8 9 10 11 12 13 14 15 16 17 18 19 20 21 22 23
001
FTUS43 KGRB 111723
TAFGRB
TAF
KGRB 111723Z 1118/1218 27008KT P6SM SKC
     FM120100 23007KT P6SM BKN080
     FM120900 28009G16KT P6SM BKN035
     FM121600 32016G26KT P6SM -SN BKN040=

USA.gov is the U.S. government's official web portal to all federal, state and local government web resources and services.